Corinth Corners, Vermont
Current Conditions -  °F | °C
As of 10:51 AM on Thursday 23 Oct 2014 (Local Time) from KMPV Reporting Station
Light Rain Light Rain  
Wind Chill: 37°   Ceiling: 1300
Heat Index: 43°   Visibility: 8mi
Dew Point: 41°   Wind: 10mph
Humidity: 93%   Direction: 350°N
Pressure: 29.93"   Gusts: NA
Location:  44.0361°N, 72.2949°W
Report Text: KMPV 231451Z AUTO 35009KT 8SM -RA OVC013 06/05 A2993 RMK AO2 RAB07 SLP143 P0003 60003 T00610050 57008
Loading
Personal Weather Stations






























Interactive Weather Map
Tropical Storm Tracking
New forecast layout! Learn more

10-Day Weather Forecast

Advertisements
Track Severe Weather on mobile